Tropical Cyclones
[Index]
Main Index Home Page Stock Weather Photos Extreme Storms Discussion Storm News and Storm Chasing Reports Tropical Cyclones / Hurricanes / Typhoons Weather Data and Links Wild Fires / Bushfires Weather Observation Techniques Weather Picture Catalogue Tornado Pictures and Reports Stock Video Footage and DVDs for sale
Season 2003-2004 Tropical Cyclone GAFILO Track Map
Season 2003-2004 Summaries (Operational Data): [AU] [SIO] [SPAC] [SH]
<<- Previous TC | 2003-2004 Season | Next TC ->>

click for intensity scale information  Lat/long Grid: Show Hide

 Date Labels: Show Hide

Operational Tropical Cyclone Data : JTWC Advisories

Name: GAFILO
Number: 0416

02 Mar 2004 06:00 UTC to 15 Mar 2004 06:00 UTC

    date/time    lat    long     hPa   cat  kts
2004-03-02 06   12.9    70.8    1002         25          
2004-03-02 12   13.9    69.9    1002         25          
2004-03-02 18   14.1    68.5    1002         25          
2004-03-03 00   14.3    66.0     998         30          
2004-03-03 06   13.4    63.7     992    1    40          
2004-03-03 12   13.1    62.3     985    2    50          
2004-03-03 18   12.6    61.3     985    2    50          
2004-03-04 00   12.2    60.7     980    2    55          
2004-03-04 06   12.2    59.8     980    2    55          
2004-03-04 12   12.4    58.8     970    3    65          
2004-03-04 18   13.1    58.0     970    3    65          
2004-03-05 00   13.1    57.6     965    3    70          
2004-03-05 06   13.4    56.7     965    3    75          
2004-03-05 12   14.0    55.9     952    3    85          
2004-03-05 18   14.4    55.1     930    4    95          
2004-03-06 00   14.4    54.0     925    4   105          
2004-03-06 06   14.6    53.4     900    5   125          
2004-03-06 12   14.8    52.5     900    5   125          
2004-03-06 18   15.0    51.5     895    5   125          
2004-03-07 00   15.0    50.5     895    5   125          
2004-03-07 06   15.1    49.4            3    65          
2004-03-07 12   15.9    47.8            1    45          
2004-03-07 18   16.6    46.2            1    45          
2004-03-08 00   17.0    45.0            1    45          
2004-03-08 06   18.2    44.2            2    50          
2004-03-08 12   18.4    43.1     988    1    45          
2004-03-08 18   18.6    42.8     987    1    45          
2004-03-09 00   19.1    42.4     987    1    45          
2004-03-09 06   19.2    42.0     987    1    45          
2004-03-09 12   20.0    42.4     985    2    50          
2004-03-09 18   20.6    43.3     975    2    60          
2004-03-10 00   21.7    43.9            2    50          
2004-03-10 06   22.5    45.0     987    1    40          
2004-03-10 12   23.2    45.4            1    40          
2004-03-10 18   23.3    45.7     988    1    40          
2004-03-11 00   24.0    46.6     988    1    40          
2004-03-11 06   24.4    46.3     990    1    40          
2004-03-11 12   24.0    45.5     992    1    35          
2004-03-11 18   23.9    45.6     992         30          
2004-03-12 00   23.6    45.4     992         25          
2004-03-12 12   21.9    46.3                 25          
2004-03-12 18   23.0    47.0     996         25          
2004-03-13 00   23.3    47.5     997         25          
2004-03-13 06   23.5    48.6     999         20          
2004-03-13 12   23.6    49.2     999         20          
2004-03-14 12   26.3    56.4    1000         30          
2004-03-14 18   26.9    58.0    1000         25          
2004-03-15 00   28.0    60.0    1000         25          
2004-03-15 06   28.5    63.3    1002         25          
Winds are 10-min average.

Tropical cyclone tracks developed by Michael Bath using operational warnings and advisories and Google Maps.


[Australian Severe Weather index] [Copyright Notice] [Email Contacts] [Search This Site] [Privacy Policy]
Document: tropical_cyclone_gafilo.htm Updated: 28 May 2013